sensor_id;sensor_type;location;lat;lon;timestamp;P1;durP1;ratioP1;P2;durP2;ratioP2
8636;SDS011;4356;49.068;8.658;2024-01-27T00:01:43;3.47;;;3.27;;
8636;SDS011;4356;49.068;8.658;2024-01-27T00:04:08;3.57;;;3.37;;
8636;SDS011;4356;49.068;8.658;2024-01-27T00:06:34;4.10;;;3.43;;
8636;SDS011;4356;49.068;8.658;2024-01-27T00:08:59;5.53;;;3.97;;
8636;SDS011;4356;49.068;8.658;2024-01-27T00:11:25;3.33;;;3.00;;
8636;SDS011;4356;49.068;8.658;2024-01-27T00:13:50;4.23;;;3.93;;
8636;SDS011;4356;49.068;8.658;2024-01-27T00:16:16;3.97;;;3.57;;
8636;SDS011;4356;49.068;8.658;2024-01-27T00:18:41;5.70;;;4.00;;
8636;SDS011;4356;49.068;8.658;2024-01-27T00:21:07;4.40;;;4.00;;
8636;SDS011;4356;49.068;8.658;2024-01-27T00:23:32;4.73;;;4.33;;
8636;SDS011;4356;49.068;8.658;2024-01-27T00:25:59;4.70;;;4.17;;
8636;SDS011;4356;49.068;8.658;2024-01-27T00:28:25;5.43;;;4.77;;
8636;SDS011;4356;49.068;8.658;2024-01-27T00:30:50;4.13;;;3.83;;
8636;SDS011;4356;49.068;8.658;2024-01-27T00:33:16;3.80;;;3.50;;
8636;SDS011;4356;49.068;8.658;2024-01-27T00:35:41;4.10;;;3.70;;
8636;SDS011;4356;49.068;8.658;2024-01-27T00:38:07;3.93;;;3.63;;
8636;SDS011;4356;49.068;8.658;2024-01-27T00:40:32;3.87;;;3.57;;
8636;SDS011;4356;49.068;8.658;2024-01-27T00:42:58;5.70;;;4.13;;
8636;SDS011;4356;49.068;8.658;2024-01-27T00:45:23;4.03;;;3.63;;
8636;SDS011;4356;49.068;8.658;2024-01-27T00:47:49;4.10;;;3.70;;
8636;SDS011;4356;49.068;8.658;2024-01-27T00:50:15;3.70;;;3.50;;
8636;SDS011;4356;49.068;8.658;2024-01-27T00:52:41;5.23;;;4.40;;
8636;SDS011;4356;49.068;8.658;2024-01-27T00:55:06;4.63;;;4.20;;
8636;SDS011;4356;49.068;8.658;2024-01-27T00:57:32;8.20;;;5.07;;
8636;SDS011;4356;49.068;8.658;2024-01-27T00:59:57;4.50;;;4.07;;
8636;SDS011;4356;49.068;8.658;2024-01-27T01:02:23;4.77;;;4.27;;
8636;SDS011;4356;49.068;8.658;2024-01-27T01:04:48;6.43;;;4.27;;
8636;SDS011;4356;49.068;8.658;2024-01-27T01:07:14;5.77;;;4.43;;
8636;SDS011;4356;49.068;8.658;2024-01-27T01:09:39;4.50;;;4.20;;
8636;SDS011;4356;49.068;8.658;2024-01-27T01:12:05;4.37;;;3.97;;
8636;SDS011;4356;49.068;8.658;2024-01-27T01:14:30;3.27;;;3.07;;
8636;SDS011;4356;49.068;8.658;2024-01-27T01:16:56;3.57;;;3.27;;
8636;SDS011;4356;49.068;8.658;2024-01-27T01:19:21;4.17;;;3.77;;
8636;SDS011;4356;49.068;8.658;2024-01-27T01:21:46;3.87;;;3.57;;
8636;SDS011;4356;49.068;8.658;2024-01-27T01:24:12;3.73;;;3.47;;
8636;SDS011;4356;49.068;8.658;2024-01-27T01:26:37;4.07;;;3.73;;
8636;SDS011;4356;49.068;8.658;2024-01-27T01:29:02;3.90;;;3.60;;
8636;SDS011;4356;49.068;8.658;2024-01-27T01:31:28;4.20;;;3.50;;
8636;SDS011;4356;49.068;8.658;2024-01-27T01:33:53;3.73;;;3.43;;
8636;SDS011;4356;49.068;8.658;2024-01-27T01:36:19;3.30;;;3.10;;
8636;SDS011;4356;49.068;8.658;2024-01-27T01:38:45;4.20;;;3.80;;
8636;SDS011;4356;49.068;8.658;2024-01-27T01:41:11;3.67;;;3.37;;
8636;SDS011;4356;49.068;8.658;2024-01-27T01:43:36;3.60;;;3.30;;
8636;SDS011;4356;49.068;8.658;2024-01-27T01:46:01;3.67;;;3.37;;
8636;SDS011;4356;49.068;8.658;2024-01-27T01:48:27;5.53;;;2.97;;
8636;SDS011;4356;49.068;8.658;2024-01-27T01:50:54;3.00;;;2.80;;
8636;SDS011;4356;49.068;8.658;2024-01-27T01:53:19;3.13;;;2.93;;
8636;SDS011;4356;49.068;8.658;2024-01-27T01:55:45;3.53;;;3.20;;
8636;SDS011;4356;49.068;8.658;2024-01-27T01:58:11;3.70;;;3.40;;
8636;SDS011;4356;49.068;8.658;2024-01-27T02:00:36;4.47;;;3.80;;
8636;SDS011;4356;49.068;8.658;2024-01-27T02:03:02;3.57;;;3.37;;
8636;SDS011;4356;49.068;8.658;2024-01-27T02:05:28;3.77;;;3.20;;
8636;SDS011;4356;49.068;8.658;2024-01-27T02:07:53;3.10;;;2.90;;
8636;SDS011;4356;49.068;8.658;2024-01-27T02:10:21;7.30;;;2.97;;
8636;SDS011;4356;49.068;8.658;2024-01-27T02:12:46;3.40;;;3.10;;
8636;SDS011;4356;49.068;8.658;2024-01-27T02:15:12;3.60;;;2.93;;
8636;SDS011;4356;49.068;8.658;2024-01-27T02:17:38;2.90;;;2.60;;
8636;SDS011;4356;49.068;8.658;2024-01-27T02:20:05;3.07;;;2.77;;
8636;SDS011;4356;49.068;8.658;2024-01-27T02:22:32;3.00;;;2.70;;
8636;SDS011;4356;49.068;8.658;2024-01-27T02:25:01;2.87;;;2.67;;
8636;SDS011;4356;49.068;8.658;2024-01-27T02:27:27;3.80;;;2.77;;
8636;SDS011;4356;49.068;8.658;2024-01-27T02:29:53;3.53;;;2.73;;
8636;SDS011;4356;49.068;8.658;2024-01-27T02:32:18;3.57;;;2.53;;
8636;SDS011;4356;49.068;8.658;2024-01-27T02:34:43;2.57;;;2.37;;
8636;SDS011;4356;49.068;8.658;2024-01-27T02:37:09;3.40;;;3.00;;
8636;SDS011;4356;49.068;8.658;2024-01-27T02:39:34;2.87;;;2.67;;
8636;SDS011;4356;49.068;8.658;2024-01-27T02:42:00;2.97;;;2.67;;
8636;SDS011;4356;49.068;8.658;2024-01-27T02:44:25;3.20;;;2.93;;
8636;SDS011;4356;49.068;8.658;2024-01-27T02:46:50;3.20;;;3.00;;
8636;SDS011;4356;49.068;8.658;2024-01-27T02:49:16;3.90;;;3.50;;
8636;SDS011;4356;49.068;8.658;2024-01-27T02:51:41;3.60;;;2.80;;
8636;SDS011;4356;49.068;8.658;2024-01-27T02:54:06;2.80;;;2.60;;
8636;SDS011;4356;49.068;8.658;2024-01-27T02:56:32;3.33;;;3.03;;
8636;SDS011;4356;49.068;8.658;2024-01-27T02:58:57;3.20;;;2.90;;
8636;SDS011;4356;49.068;8.658;2024-01-27T03:01:23;3.20;;;2.63;;
8636;SDS011;4356;49.068;8.658;2024-01-27T03:03:48;2.97;;;2.73;;
8636;SDS011;4356;49.068;8.658;2024-01-27T03:06:13;2.50;;;2.40;;
8636;SDS011;4356;49.068;8.658;2024-01-27T03:08:39;2.70;;;2.50;;
8636;SDS011;4356;49.068;8.658;2024-01-27T03:11:04;3.00;;;2.70;;
8636;SDS011;4356;49.068;8.658;2024-01-27T03:13:29;2.57;;;2.37;;
8636;SDS011;4356;49.068;8.658;2024-01-27T03:15:55;2.30;;;2.20;;
8636;SDS011;4356;49.068;8.658;2024-01-27T03:18:21;2.77;;;2.53;;
8636;SDS011;4356;49.068;8.658;2024-01-27T03:20:46;2.77;;;2.50;;
8636;SDS011;4356;49.068;8.658;2024-01-27T03:23:11;2.33;;;2.23;;
8636;SDS011;4356;49.068;8.658;2024-01-27T03:25:37;2.47;;;2.27;;
8636;SDS011;4356;49.068;8.658;2024-01-27T03:28:02;3.00;;;2.80;;
8636;SDS011;4356;49.068;8.658;2024-01-27T03:30:28;3.17;;;2.87;;
8636;SDS011;4356;49.068;8.658;2024-01-27T03:32:53;2.90;;;2.50;;
8636;SDS011;4356;49.068;8.658;2024-01-27T03:35:18;4.10;;;2.53;;
8636;SDS011;4356;49.068;8.658;2024-01-27T03:37:44;3.87;;;2.57;;
8636;SDS011;4356;49.068;8.658;2024-01-27T03:40:10;3.30;;;2.67;;
8636;SDS011;4356;49.068;8.658;2024-01-27T03:42:36;3.33;;;2.60;;
8636;SDS011;4356;49.068;8.658;2024-01-27T03:45:01;2.87;;;2.63;;
8636;SDS011;4356;49.068;8.658;2024-01-27T03:47:27;4.23;;;2.67;;
8636;SDS011;4356;49.068;8.658;2024-01-27T03:49:52;3.27;;;2.37;;
8636;SDS011;4356;49.068;8.658;2024-01-27T03:52:18;4.33;;;2.60;;
8636;SDS011;4356;49.068;8.658;2024-01-27T03:54:43;2.50;;;2.30;;
8636;SDS011;4356;49.068;8.658;2024-01-27T03:57:08;2.53;;;2.33;;
8636;SDS011;4356;49.068;8.658;2024-01-27T03:59:34;2.40;;;2.20;;
8636;SDS011;4356;49.068;8.658;2024-01-27T04:01:59;2.33;;;2.10;;
8636;SDS011;4356;49.068;8.658;2024-01-27T04:04:26;2.43;;;2.23;;
8636;SDS011;4356;49.068;8.658;2024-01-27T04:06:51;3.07;;;2.57;;
8636;SDS011;4356;49.068;8.658;2024-01-27T04:09:16;3.20;;;2.43;;
8636;SDS011;4356;49.068;8.658;2024-01-27T04:11:42;2.43;;;2.13;;
8636;SDS011;4356;49.068;8.658;2024-01-27T04:14:07;2.50;;;2.33;;
8636;SDS011;4356;49.068;8.658;2024-01-27T04:16:33;2.53;;;2.30;;
8636;SDS011;4356;49.068;8.658;2024-01-27T04:18:58;3.37;;;2.50;;
8636;SDS011;4356;49.068;8.658;2024-01-27T04:21:23;2.57;;;2.37;;
8636;SDS011;4356;49.068;8.658;2024-01-27T04:23:49;2.93;;;2.73;;
8636;SDS011;4356;49.068;8.658;2024-01-27T04:26:14;2.83;;;2.60;;
8636;SDS011;4356;49.068;8.658;2024-01-27T04:28:40;2.93;;;2.73;;
8636;SDS011;4356;49.068;8.658;2024-01-27T04:31:06;2.73;;;2.53;;
8636;SDS011;4356;49.068;8.658;2024-01-27T04:33:31;3.03;;;2.60;;
8636;SDS011;4356;49.068;8.658;2024-01-27T04:35:57;2.50;;;2.40;;
8636;SDS011;4356;49.068;8.658;2024-01-27T04:38:22;4.33;;;2.13;;
8636;SDS011;4356;49.068;8.658;2024-01-27T04:40:49;2.50;;;2.20;;
8636;SDS011;4356;49.068;8.658;2024-01-27T04:43:20;4.13;;;2.60;;
8636;SDS011;4356;49.068;8.658;2024-01-27T04:45:46;3.63;;;2.30;;
8636;SDS011;4356;49.068;8.658;2024-01-27T04:48:13;3.20;;;2.73;;
8636;SDS011;4356;49.068;8.658;2024-01-27T04:50:38;3.00;;;2.43;;
8636;SDS011;4356;49.068;8.658;2024-01-27T04:53:04;2.97;;;2.50;;
8636;SDS011;4356;49.068;8.658;2024-01-27T04:55:29;2.97;;;2.70;;
8636;SDS011;4356;49.068;8.658;2024-01-27T04:57:54;3.50;;;2.53;;
8636;SDS011;4356;49.068;8.658;2024-01-27T05:00:20;2.20;;;2.00;;
8636;SDS011;4356;49.068;8.658;2024-01-27T05:02:45;2.50;;;2.30;;
8636;SDS011;4356;49.068;8.658;2024-01-27T05:05:11;2.70;;;2.50;;
8636;SDS011;4356;49.068;8.658;2024-01-27T05:07:37;2.50;;;2.40;;
8636;SDS011;4356;49.068;8.658;2024-01-27T05:10:02;3.17;;;2.13;;
8636;SDS011;4356;49.068;8.658;2024-01-27T05:12:28;2.60;;;2.50;;
8636;SDS011;4356;49.068;8.658;2024-01-27T05:14:54;2.70;;;2.50;;
8636;SDS011;4356;49.068;8.658;2024-01-27T05:17:19;2.47;;;2.30;;
8636;SDS011;4356;49.068;8.658;2024-01-27T05:19:44;2.17;;;1.97;;
8636;SDS011;4356;49.068;8.658;2024-01-27T05:22:10;3.20;;;2.17;;
8636;SDS011;4356;49.068;8.658;2024-01-27T05:24:35;2.27;;;2.17;;
8636;SDS011;4356;49.068;8.658;2024-01-27T05:27:00;3.80;;;2.80;;
8636;SDS011;4356;49.068;8.658;2024-01-27T05:29:27;3.90;;;2.50;;
8636;SDS011;4356;49.068;8.658;2024-01-27T05:31:53;3.50;;;2.50;;
8636;SDS011;4356;49.068;8.658;2024-01-27T05:34:18;2.40;;;2.20;;
8636;SDS011;4356;49.068;8.658;2024-01-27T05:36:43;3.97;;;2.80;;
8636;SDS011;4356;49.068;8.658;2024-01-27T05:39:09;2.33;;;2.13;;
8636;SDS011;4356;49.068;8.658;2024-01-27T05:41:34;2.60;;;2.40;;
8636;SDS011;4356;49.068;8.658;2024-01-27T05:44:00;2.73;;;2.53;;
8636;SDS011;4356;49.068;8.658;2024-01-27T05:46:25;2.70;;;2.50;;
8636;SDS011;4356;49.068;8.658;2024-01-27T05:48:51;2.80;;;2.60;;
8636;SDS011;4356;49.068;8.658;2024-01-27T05:51:19;2.40;;;2.20;;
8636;SDS011;4356;49.068;8.658;2024-01-27T05:53:50;3.70;;;2.33;;
8636;SDS011;4356;49.068;8.658;2024-01-27T05:56:16;2.90;;;2.50;;
8636;SDS011;4356;49.068;8.658;2024-01-27T05:58:45;3.53;;;3.00;;
8636;SDS011;4356;49.068;8.658;2024-01-27T06:01:10;2.60;;;2.40;;
8636;SDS011;4356;49.068;8.658;2024-01-27T06:03:36;2.80;;;2.60;;
8636;SDS011;4356;49.068;8.658;2024-01-27T06:06:01;2.73;;;2.47;;
8636;SDS011;4356;49.068;8.658;2024-01-27T06:08:26;2.40;;;2.20;;
8636;SDS011;4356;49.068;8.658;2024-01-27T06:10:52;3.47;;;2.57;;
8636;SDS011;4356;49.068;8.658;2024-01-27T06:13:17;3.33;;;3.03;;
8636;SDS011;4356;49.068;8.658;2024-01-27T06:15:43;2.90;;;2.70;;
8636;SDS011;4356;49.068;8.658;2024-01-27T06:18:08;4.93;;;4.53;;
8636;SDS011;4356;49.068;8.658;2024-01-27T06:20:34;5.70;;;5.30;;
8636;SDS011;4356;49.068;8.658;2024-01-27T06:22:59;4.50;;;4.10;;
8636;SDS011;4356;49.068;8.658;2024-01-27T06:25:24;3.67;;;2.80;;
8636;SDS011;4356;49.068;8.658;2024-01-27T06:27:50;3.00;;;2.80;;
8636;SDS011;4356;49.068;8.658;2024-01-27T06:30:15;2.77;;;2.50;;
8636;SDS011;4356;49.068;8.658;2024-01-27T06:32:41;3.17;;;2.53;;
8636;SDS011;4356;49.068;8.658;2024-01-27T06:35:07;2.80;;;2.60;;
8636;SDS011;4356;49.068;8.658;2024-01-27T06:37:33;4.20;;;3.37;;
8636;SDS011;4356;49.068;8.658;2024-01-27T06:39:58;3.67;;;2.97;;
8636;SDS011;4356;49.068;8.658;2024-01-27T06:42:23;3.50;;;2.90;;
8636;SDS011;4356;49.068;8.658;2024-01-27T06:44:49;3.00;;;2.80;;
8636;SDS011;4356;49.068;8.658;2024-01-27T06:47:14;3.43;;;2.97;;
8636;SDS011;4356;49.068;8.658;2024-01-27T06:49:40;3.57;;;3.23;;
8636;SDS011;4356;49.068;8.658;2024-01-27T06:52:05;3.47;;;2.70;;
8636;SDS011;4356;49.068;8.658;2024-01-27T06:54:31;3.10;;;2.90;;
8636;SDS011;4356;49.068;8.658;2024-01-27T06:56:58;4.13;;;3.23;;
8636;SDS011;4356;49.068;8.658;2024-01-27T06:59:25;3.40;;;2.93;;
8636;SDS011;4356;49.068;8.658;2024-01-27T07:01:50;4.20;;;3.80;;
8636;SDS011;4356;49.068;8.658;2024-01-27T07:04:16;5.93;;;3.73;;
8636;SDS011;4356;49.068;8.658;2024-01-27T07:06:42;5.43;;;3.27;;
8636;SDS011;4356;49.068;8.658;2024-01-27T07:09:08;4.10;;;3.70;;
8636;SDS011;4356;49.068;8.658;2024-01-27T07:11:34;3.60;;;3.40;;
8636;SDS011;4356;49.068;8.658;2024-01-27T07:14:03;6.90;;;3.70;;
8636;SDS011;4356;49.068;8.658;2024-01-27T07:16:28;4.23;;;3.20;;
8636;SDS011;4356;49.068;8.658;2024-01-27T07:18:54;4.90;;;3.50;;
8636;SDS011;4356;49.068;8.658;2024-01-27T07:21:19;4.03;;;3.67;;
8636;SDS011;4356;49.068;8.658;2024-01-27T07:23:45;3.70;;;3.40;;
8636;SDS011;4356;49.068;8.658;2024-01-27T07:26:10;3.63;;;3.33;;
8636;SDS011;4356;49.068;8.658;2024-01-27T07:28:36;3.33;;;3.03;;
8636;SDS011;4356;49.068;8.658;2024-01-27T07:31:02;2.77;;;2.57;;
8636;SDS011;4356;49.068;8.658;2024-01-27T07:33:28;3.17;;;2.87;;
8636;SDS011;4356;49.068;8.658;2024-01-27T07:35:54;7.00;;;2.63;;
8636;SDS011;4356;49.068;8.658;2024-01-27T07:38:19;3.30;;;3.10;;
8636;SDS011;4356;49.068;8.658;2024-01-27T07:40:44;3.80;;;3.50;;
8636;SDS011;4356;49.068;8.658;2024-01-27T07:43:10;4.90;;;2.93;;
8636;SDS011;4356;49.068;8.658;2024-01-27T07:45:35;3.43;;;3.13;;
8636;SDS011;4356;49.068;8.658;2024-01-27T07:48:01;4.13;;;3.73;;
8636;SDS011;4356;49.068;8.658;2024-01-27T07:50:26;4.17;;;3.77;;
8636;SDS011;4356;49.068;8.658;2024-01-27T07:52:52;4.67;;;3.90;;
8636;SDS011;4356;49.068;8.658;2024-01-27T07:55:17;4.37;;;3.97;;
8636;SDS011;4356;49.068;8.658;2024-01-27T07:57:42;5.07;;;3.97;;
8636;SDS011;4356;49.068;8.658;2024-01-27T08:00:08;3.77;;;3.47;;
8636;SDS011;4356;49.068;8.658;2024-01-27T08:02:34;4.90;;;3.70;;
8636;SDS011;4356;49.068;8.658;2024-01-27T08:04:59;3.53;;;3.23;;
8636;SDS011;4356;49.068;8.658;2024-01-27T08:07:25;3.87;;;3.57;;
8636;SDS011;4356;49.068;8.658;2024-01-27T08:09:50;3.90;;;3.70;;
8636;SDS011;4356;49.068;8.658;2024-01-27T08:12:15;4.47;;;4.07;;
8636;SDS011;4356;49.068;8.658;2024-01-27T08:14:41;4.23;;;3.83;;
8636;SDS011;4356;49.068;8.658;2024-01-27T08:17:06;5.23;;;4.40;;
8636;SDS011;4356;49.068;8.658;2024-01-27T08:19:32;5.50;;;3.73;;
8636;SDS011;4356;49.068;8.658;2024-01-27T08:21:57;4.90;;;3.80;;
8636;SDS011;4356;49.068;8.658;2024-01-27T08:24:23;3.67;;;3.33;;
8636;SDS011;4356;49.068;8.658;2024-01-27T08:26:49;4.10;;;3.43;;
8636;SDS011;4356;49.068;8.658;2024-01-27T08:29:15;4.27;;;3.87;;
8636;SDS011;4356;49.068;8.658;2024-01-27T08:31:40;4.93;;;3.60;;
8636;SDS011;4356;49.068;8.658;2024-01-27T08:34:06;3.90;;;3.40;;
8636;SDS011;4356;49.068;8.658;2024-01-27T08:36:31;7.50;;;3.50;;
8636;SDS011;4356;49.068;8.658;2024-01-27T08:38:58;3.67;;;3.40;;
8636;SDS011;4356;49.068;8.658;2024-01-27T08:41:24;4.83;;;4.10;;
8636;SDS011;4356;49.068;8.658;2024-01-27T08:43:50;6.80;;;4.33;;
8636;SDS011;4356;49.068;8.658;2024-01-27T08:46:15;4.50;;;3.97;;
8636;SDS011;4356;49.068;8.658;2024-01-27T08:48:42;4.63;;;4.10;;
8636;SDS011;4356;49.068;8.658;2024-01-27T08:51:08;5.20;;;4.30;;
8636;SDS011;4356;49.068;8.658;2024-01-27T08:53:34;5.90;;;5.30;;
8636;SDS011;4356;49.068;8.658;2024-01-27T08:56:00;5.03;;;4.63;;
8636;SDS011;4356;49.068;8.658;2024-01-27T08:58:26;5.40;;;4.90;;
8636;SDS011;4356;49.068;8.658;2024-01-27T09:00:51;5.23;;;4.70;;
8636;SDS011;4356;49.068;8.658;2024-01-27T09:03:18;5.30;;;4.63;;
8636;SDS011;4356;49.068;8.658;2024-01-27T09:05:45;7.30;;;5.20;;
8636;SDS011;4356;49.068;8.658;2024-01-27T09:08:13;4.77;;;4.33;;
8636;SDS011;4356;49.068;8.658;2024-01-27T09:10:39;4.53;;;4.03;;
8636;SDS011;4356;49.068;8.658;2024-01-27T09:13:04;6.23;;;4.27;;
8636;SDS011;4356;49.068;8.658;2024-01-27T09:15:30;4.53;;;4.17;;
8636;SDS011;4356;49.068;8.658;2024-01-27T09:17:56;5.97;;;4.30;;
8636;SDS011;4356;49.068;8.658;2024-01-27T09:20:21;5.50;;;4.93;;
8636;SDS011;4356;49.068;8.658;2024-01-27T09:22:47;5.37;;;4.87;;
8636;SDS011;4356;49.068;8.658;2024-01-27T09:25:14;5.43;;;4.67;;
8636;SDS011;4356;49.068;8.658;2024-01-27T09:27:40;7.13;;;5.47;;
8636;SDS011;4356;49.068;8.658;2024-01-27T09:30:06;5.93;;;4.57;;
8636;SDS011;4356;49.068;8.658;2024-01-27T09:32:32;5.33;;;4.40;;
8636;SDS011;4356;49.068;8.658;2024-01-27T09:34:58;7.10;;;4.73;;
8636;SDS011;4356;49.068;8.658;2024-01-27T09:37:23;5.03;;;4.57;;
8636;SDS011;4356;49.068;8.658;2024-01-27T09:39:48;7.83;;;4.57;;
8636;SDS011;4356;49.068;8.658;2024-01-27T09:42:14;5.33;;;4.30;;
8636;SDS011;4356;49.068;8.658;2024-01-27T09:44:42;4.50;;;4.10;;
8636;SDS011;4356;49.068;8.658;2024-01-27T09:47:10;4.50;;;4.07;;
8636;SDS011;4356;49.068;8.658;2024-01-27T09:49:36;4.37;;;4.00;;
8636;SDS011;4356;49.068;8.658;2024-01-27T09:52:04;4.73;;;4.33;;
8636;SDS011;4356;49.068;8.658;2024-01-27T09:54:30;4.97;;;4.17;;
8636;SDS011;4356;49.068;8.658;2024-01-27T09:56:55;3.97;;;3.57;;
8636;SDS011;4356;49.068;8.658;2024-01-27T09:59:21;4.40;;;3.93;;
8636;SDS011;4356;49.068;8.658;2024-01-27T10:01:47;5.33;;;3.90;;
8636;SDS011;4356;49.068;8.658;2024-01-27T10:04:13;4.30;;;3.43;;
8636;SDS011;4356;49.068;8.658;2024-01-27T10:06:40;5.67;;;3.80;;
8636;SDS011;4356;49.068;8.658;2024-01-27T10:09:06;4.10;;;3.70;;
8636;SDS011;4356;49.068;8.658;2024-01-27T10:11:32;4.60;;;3.57;;
8636;SDS011;4356;49.068;8.658;2024-01-27T10:14:01;4.93;;;3.40;;
8636;SDS011;4356;49.068;8.658;2024-01-27T10:16:27;4.13;;;3.73;;
8636;SDS011;4356;49.068;8.658;2024-01-27T10:19:02;4.57;;;3.50;;
8636;SDS011;4356;49.068;8.658;2024-01-27T10:21:28;4.53;;;3.30;;
8636;SDS011;4356;49.068;8.658;2024-01-27T10:23:54;4.40;;;3.43;;
8636;SDS011;4356;49.068;8.658;2024-01-27T10:26:19;3.77;;;3.10;;
8636;SDS011;4356;49.068;8.658;2024-01-27T10:28:57;5.10;;;3.30;;
8636;SDS011;4356;49.068;8.658;2024-01-27T10:31:26;4.60;;;3.73;;
8636;SDS011;4356;49.068;8.658;2024-01-27T10:33:52;3.70;;;3.40;;
8636;SDS011;4356;49.068;8.658;2024-01-27T10:36:19;5.27;;;3.77;;
8636;SDS011;4356;49.068;8.658;2024-01-27T10:38:45;4.83;;;3.80;;
8636;SDS011;4356;49.068;8.658;2024-01-27T10:41:10;6.97;;;4.07;;
8636;SDS011;4356;49.068;8.658;2024-01-27T10:43:37;5.27;;;4.30;;
8636;SDS011;4356;49.068;8.658;2024-01-27T10:46:06;4.40;;;3.60;;
8636;SDS011;4356;49.068;8.658;2024-01-27T10:48:36;7.27;;;4.27;;
8636;SDS011;4356;49.068;8.658;2024-01-27T10:51:11;6.40;;;4.07;;
8636;SDS011;4356;49.068;8.658;2024-01-27T10:53:41;5.77;;;3.27;;
8636;SDS011;4356;49.068;8.658;2024-01-27T10:56:09;5.43;;;3.50;;
8636;SDS011;4356;49.068;8.658;2024-01-27T10:58:38;6.37;;;3.20;;
8636;SDS011;4356;49.068;8.658;2024-01-27T11:01:10;5.80;;;3.17;;
8636;SDS011;4356;49.068;8.658;2024-01-27T11:03:38;6.97;;;3.30;;
8636;SDS011;4356;49.068;8.658;2024-01-27T11:06:04;7.00;;;3.30;;
8636;SDS011;4356;49.068;8.658;2024-01-27T11:08:31;4.03;;;3.37;;
8636;SDS011;4356;49.068;8.658;2024-01-27T11:10:59;5.13;;;3.20;;
8636;SDS011;4356;49.068;8.658;2024-01-27T11:13:25;4.43;;;3.33;;
8636;SDS011;4356;49.068;8.658;2024-01-27T11:15:53;10.43;;;3.83;;
8636;SDS011;4356;49.068;8.658;2024-01-27T11:18:19;6.20;;;2.93;;
8636;SDS011;4356;49.068;8.658;2024-01-27T11:20:45;3.97;;;2.97;;
8636;SDS011;4356;49.068;8.658;2024-01-27T11:23:11;5.80;;;2.97;;
8636;SDS011;4356;49.068;8.658;2024-01-27T11:25:39;8.37;;;3.23;;
8636;SDS011;4356;49.068;8.658;2024-01-27T11:28:11;5.93;;;3.03;;
8636;SDS011;4356;49.068;8.658;2024-01-27T11:30:44;4.93;;;2.73;;
8636;SDS011;4356;49.068;8.658;2024-01-27T11:33:13;4.97;;;3.10;;
8636;SDS011;4356;49.068;8.658;2024-01-27T11:35:39;4.57;;;2.77;;
8636;SDS011;4356;49.068;8.658;2024-01-27T11:38:04;5.13;;;2.83;;
8636;SDS011;4356;49.068;8.658;2024-01-27T11:40:30;4.97;;;2.53;;
8636;SDS011;4356;49.068;8.658;2024-01-27T11:42:56;3.97;;;3.00;;
8636;SDS011;4356;49.068;8.658;2024-01-27T11:45:22;3.27;;;2.97;;
8636;SDS011;4356;49.068;8.658;2024-01-27T11:47:47;4.00;;;2.53;;
8636;SDS011;4356;49.068;8.658;2024-01-27T11:50:13;4.97;;;3.13;;
8636;SDS011;4356;49.068;8.658;2024-01-27T11:52:38;4.43;;;3.20;;
8636;SDS011;4356;49.068;8.658;2024-01-27T11:55:04;6.43;;;2.70;;
8636;SDS011;4356;49.068;8.658;2024-01-27T11:57:29;4.30;;;2.93;;
8636;SDS011;4356;49.068;8.658;2024-01-27T11:59:55;6.07;;;2.80;;
8636;SDS011;4356;49.068;8.658;2024-01-27T12:02:22;3.33;;;3.10;;
8636;SDS011;4356;49.068;8.658;2024-01-27T12:04:47;5.90;;;3.03;;
8636;SDS011;4356;49.068;8.658;2024-01-27T12:07:14;4.73;;;3.00;;
8636;SDS011;4356;49.068;8.658;2024-01-27T12:09:40;2.73;;;2.53;;
8636;SDS011;4356;49.068;8.658;2024-01-27T12:12:05;5.10;;;2.83;;
8636;SDS011;4356;49.068;8.658;2024-01-27T12:14:41;5.47;;;3.47;;
8636;SDS011;4356;49.068;8.658;2024-01-27T12:17:10;4.77;;;2.70;;
8636;SDS011;4356;49.068;8.658;2024-01-27T12:19:36;4.30;;;3.10;;
8636;SDS011;4356;49.068;8.658;2024-01-27T12:22:02;5.30;;;3.20;;
8636;SDS011;4356;49.068;8.658;2024-01-27T12:24:28;6.80;;;3.23;;
8636;SDS011;4356;49.068;8.658;2024-01-27T12:26:54;5.23;;;3.30;;
8636;SDS011;4356;49.068;8.658;2024-01-27T12:29:22;8.47;;;3.23;;
8636;SDS011;4356;49.068;8.658;2024-01-27T12:31:48;3.87;;;3.13;;
8636;SDS011;4356;49.068;8.658;2024-01-27T12:34:14;5.43;;;3.00;;
8636;SDS011;4356;49.068;8.658;2024-01-27T12:36:42;5.53;;;3.27;;
8636;SDS011;4356;49.068;8.658;2024-01-27T12:39:08;6.13;;;3.07;;
8636;SDS011;4356;49.068;8.658;2024-01-27T12:41:35;5.07;;;2.97;;
8636;SDS011;4356;49.068;8.658;2024-01-27T12:44:00;6.23;;;3.30;;
8636;SDS011;4356;49.068;8.658;2024-01-27T12:46:27;3.37;;;2.70;;
8636;SDS011;4356;49.068;8.658;2024-01-27T12:48:52;4.23;;;3.13;;
8636;SDS011;4356;49.068;8.658;2024-01-27T12:51:18;5.80;;;3.00;;
8636;SDS011;4356;49.068;8.658;2024-01-27T12:53:44;5.07;;;2.90;;
8636;SDS011;4356;49.068;8.658;2024-01-27T12:56:10;4.07;;;2.77;;
8636;SDS011;4356;49.068;8.658;2024-01-27T12:58:37;3.27;;;2.40;;
8636;SDS011;4356;49.068;8.658;2024-01-27T13:01:03;4.40;;;2.50;;
8636;SDS011;4356;49.068;8.658;2024-01-27T13:03:29;4.33;;;2.77;;
8636;SDS011;4356;49.068;8.658;2024-01-27T13:05:55;2.50;;;2.30;;
8636;SDS011;4356;49.068;8.658;2024-01-27T13:08:22;4.67;;;2.70;;
8636;SDS011;4356;49.068;8.658;2024-01-27T13:10:48;8.00;;;2.77;;
8636;SDS011;4356;49.068;8.658;2024-01-27T13:13:14;6.63;;;2.77;;
8636;SDS011;4356;49.068;8.658;2024-01-27T13:15:39;5.80;;;2.77;;
8636;SDS011;4356;49.068;8.658;2024-01-27T13:18:05;4.90;;;2.40;;
8636;SDS011;4356;49.068;8.658;2024-01-27T13:20:39;4.50;;;2.57;;
8636;SDS011;4356;49.068;8.658;2024-01-27T13:23:07;2.60;;;2.40;;
8636;SDS011;4356;49.068;8.658;2024-01-27T13:25:33;3.83;;;2.60;;
8636;SDS011;4356;49.068;8.658;2024-01-27T13:27:58;2.67;;;2.23;;
8636;SDS011;4356;49.068;8.658;2024-01-27T13:30:24;5.33;;;2.97;;
8636;SDS011;4356;49.068;8.658;2024-01-27T13:32:50;4.07;;;2.53;;
8636;SDS011;4356;49.068;8.658;2024-01-27T13:35:15;4.37;;;2.60;;
8636;SDS011;4356;49.068;8.658;2024-01-27T13:37:41;5.17;;;2.97;;
8636;SDS011;4356;49.068;8.658;2024-01-27T13:40:06;4.30;;;2.50;;
8636;SDS011;4356;49.068;8.658;2024-01-27T13:42:35;4.97;;;3.07;;
8636;SDS011;4356;49.068;8.658;2024-01-27T13:45:01;5.37;;;2.60;;
8636;SDS011;4356;49.068;8.658;2024-01-27T13:47:26;6.50;;;2.70;;
8636;SDS011;4356;49.068;8.658;2024-01-27T13:49:52;5.53;;;2.80;;
8636;SDS011;4356;49.068;8.658;2024-01-27T13:52:18;6.33;;;3.23;;
8636;SDS011;4356;49.068;8.658;2024-01-27T13:54:43;4.03;;;2.90;;
8636;SDS011;4356;49.068;8.658;2024-01-27T13:57:09;3.53;;;2.50;;
8636;SDS011;4356;49.068;8.658;2024-01-27T13:59:38;4.83;;;2.93;;
8636;SDS011;4356;49.068;8.658;2024-01-27T14:02:03;3.23;;;2.93;;
8636;SDS011;4356;49.068;8.658;2024-01-27T14:04:29;6.97;;;2.97;;
8636;SDS011;4356;49.068;8.658;2024-01-27T14:06:54;4.50;;;2.83;;
8636;SDS011;4356;49.068;8.658;2024-01-27T14:09:21;4.40;;;3.40;;
8636;SDS011;4356;49.068;8.658;2024-01-27T14:11:47;3.80;;;2.60;;
8636;SDS011;4356;49.068;8.658;2024-01-27T14:14:13;7.97;;;3.20;;
8636;SDS011;4356;49.068;8.658;2024-01-27T14:16:38;5.00;;;3.00;;
8636;SDS011;4356;49.068;8.658;2024-01-27T14:19:04;4.63;;;2.70;;
8636;SDS011;4356;49.068;8.658;2024-01-27T14:21:31;8.77;;;2.70;;
8636;SDS011;4356;49.068;8.658;2024-01-27T14:23:57;6.90;;;2.70;;
8636;SDS011;4356;49.068;8.658;2024-01-27T14:26:28;5.87;;;2.70;;
8636;SDS011;4356;49.068;8.658;2024-01-27T14:28:54;6.53;;;3.00;;
8636;SDS011;4356;49.068;8.658;2024-01-27T14:31:20;5.77;;;2.83;;
8636;SDS011;4356;49.068;8.658;2024-01-27T14:33:45;8.43;;;3.23;;
8636;SDS011;4356;49.068;8.658;2024-01-27T14:36:11;6.27;;;3.10;;
8636;SDS011;4356;49.068;8.658;2024-01-27T14:38:37;9.67;;;3.07;;
8636;SDS011;4356;49.068;8.658;2024-01-27T14:41:03;5.90;;;3.27;;
8636;SDS011;4356;49.068;8.658;2024-01-27T14:43:30;5.43;;;3.17;;
8636;SDS011;4356;49.068;8.658;2024-01-27T14:45:55;4.77;;;3.07;;
8636;SDS011;4356;49.068;8.658;2024-01-27T14:48:21;4.40;;;3.10;;
8636;SDS011;4356;49.068;8.658;2024-01-27T14:50:47;7.63;;;3.23;;
8636;SDS011;4356;49.068;8.658;2024-01-27T14:53:22;4.97;;;3.03;;
8636;SDS011;4356;49.068;8.658;2024-01-27T14:55:50;5.60;;;3.53;;
8636;SDS011;4356;49.068;8.658;2024-01-27T14:58:16;5.63;;;3.33;;
8636;SDS011;4356;49.068;8.658;2024-01-27T15:00:42;3.77;;;2.87;;
8636;SDS011;4356;49.068;8.658;2024-01-27T15:03:07;7.17;;;3.07;;
8636;SDS011;4356;49.068;8.658;2024-01-27T15:05:33;7.20;;;3.40;;
8636;SDS011;4356;49.068;8.658;2024-01-27T15:08:02;7.83;;;3.40;;